메인 페이지
METAR-TAF:

METAR-TAF

공항 :

솔트레이크시티 국제공항

솔트레이크시티, 유타, 미국

위도: 40-46-41N, 경도: 111-58-10W, 고도: 1288m

현재 날씨관측

예보는 15분 전, 13:54시(UTC)에 발표되었습니다.
무풍
온도 2°C
습도 100%
기압 1026 hPa
시정: 4.8km
고도 500ft 상공 구름 조금
고도 5000ft 상공 흐림
박무

METAR: KSLC 061354Z 00000KT 3SM BR FEW005 OVC050 02/02 A3030 RMK AO2 SLP257 TWR VIS GTR THAN FOUR T00220017

시각: 07:09 (14:09 UTC)

예보

예보는 2 시간 44분 전, 11:25시(UTC)에 발표되었습니다.
예보 대상 시간: 06일 12시부터 07일 18시까지 (UTC)
서북서3kt
시정: 3.2km
고도 500ft 상공 흐림
박무
06일 1400시부터 (UTC)
남동3kt
시정: 1.6km
고도 400ft 상공 흐림
박무
06일 1800시부터 (UTC)
남동3kt
시정: 4.8km
고도 800ft 상공 흐림
박무
06일 2000시부터 (UTC)
남서5kt
시정: 6.4km
고도 600ft 상공 구름 보통
고도 2000ft 상공 흐림
연무
07일 0300시부터 (UTC)
남남동6kt
시정: 4.8km
고도 1000ft 상공 구름 많음
고도 3000ft 상공 흐림
박무

TAF: KSLC 061125Z 0612/0718 30003KT 2SM BR OVC005 FM061400 14003KT 1SM BR OVC004 FM061800 14003KT 3SM BR OVC008 FM062000 22005KT 4SM HZ SCT006 OVC020 FM070300 15006KT 3SM BR BKN010 OVC030

4,000개 이상의 공항 관측 자료 및 예보 (METAR 및 TAF 보고).

지도상에서 검색 가능한 기상관측소가 노란 점과 빨간 점으로 표시되어 있습니다.

기상관측소 명을 보려면 표시 위로 마우스를 이동하세요.

날씨 관측과 예보를 보려면 클릭하세요.

지도 변경 : 확대하려면 엑스 표시가 있는 녹색 버튼, 축소하려면 빼기 표시가 있는 녹색 버튼, 다음 페이지의 지도를 보려면 녹색 화살표를 클릭하세요.


METAR-TAF: